createdAt,value
2018-02-14T00:01:03.646Z,17.35
2018-02-14T00:03:42.875Z,14.60
2018-02-14T00:06:11.575Z,18.87
2018-02-14T00:08:45.685Z,13.10
2018-02-14T00:11:16.451Z,15.00
2018-02-14T00:13:48.124Z,14.13
2018-02-14T00:16:23.071Z,15.75
2018-02-14T00:18:54.892Z,16.45
2018-02-14T00:21:27.803Z,20.40
2018-02-14T00:24:03.732Z,16.27
2018-02-14T00:26:35.219Z,15.07
2018-02-14T00:29:12.555Z,14.32
2018-02-14T00:31:45.442Z,17.40
2018-02-14T00:34:19.711Z,12.52
2018-02-14T00:36:52.576Z,14.93
2018-02-14T00:39:26.164Z,13.93
2018-02-14T00:41:59.654Z,12.63
2018-02-14T00:44:32.199Z,13.55
2018-02-14T00:47:10.941Z,11.12
2018-02-14T00:49:41.922Z,14.55
2018-02-14T00:52:12.895Z,16.15
2018-02-14T00:54:45.243Z,12.10
2018-02-14T00:57:19.995Z,13.07
2018-02-14T00:59:54.038Z,14.07
2018-02-14T01:02:30.475Z,11.77
2018-02-14T01:05:03.315Z,10.88
2018-02-14T01:07:33.759Z,12.65
2018-02-14T01:10:05.835Z,12.63
2018-02-14T01:15:15.906Z,14.48
2018-02-14T01:17:48.491Z,16.05
2018-02-14T01:20:23.904Z,14.32
2018-02-14T01:22:59.025Z,13.40
2018-02-14T01:25:33.090Z,13.30
2018-02-14T01:28:05.653Z,13.95
2018-02-14T01:30:36.706Z,15.13
2018-02-14T01:33:06.847Z,13.65
2018-02-14T01:35:38.620Z,14.63
2018-02-14T01:38:15.615Z,12.93
2018-02-14T01:40:48.829Z,12.18
2018-02-14T01:43:19.896Z,12.80
2018-02-14T01:45:56.007Z,14.25
2018-02-14T01:48:28.049Z,13.00
2018-02-14T01:51:04.027Z,14.00
2018-02-14T01:53:35.421Z,13.23
2018-02-14T01:56:10.388Z,13.82
2018-02-14T02:01:23.878Z,11.48
2018-02-14T02:03:59.397Z,11.55
2018-02-14T02:06:31.172Z,16.23
2018-02-14T02:09:10.788Z,12.20
2018-02-14T02:11:43.149Z,12.10
2018-02-14T02:14:17.401Z,14.60
2018-02-14T02:16:50.368Z,13.00
2018-02-14T02:19:24.806Z,15.20
2018-02-14T02:22:00.073Z,13.52
2018-02-14T02:24:36.956Z,11.27
2018-02-14T02:27:10.379Z,13.30
2018-02-14T02:29:47.999Z,15.48
2018-02-14T02:32:19.473Z,15.55
2018-02-14T02:34:55.250Z,15.65
2018-02-14T02:37:32.822Z,14.45
2018-02-14T02:40:18.117Z,13.00
2018-02-14T02:42:49.508Z,14.02
2018-02-14T02:45:20.799Z,15.68
2018-02-14T02:47:52.532Z,15.77
2018-02-14T02:50:28.191Z,13.32
2018-02-14T02:53:03.811Z,12.30
2018-02-14T02:55:33.573Z,15.15
2018-02-14T02:58:04.142Z,13.82
2018-02-14T03:00:35.925Z,14.18
2018-02-14T03:03:08.284Z,12.68
2018-02-14T03:05:41.451Z,16.20
2018-02-14T03:08:12.912Z,14.20
2018-02-14T03:10:45.007Z,13.65
2018-02-14T03:13:15.569Z,14.10
2018-02-14T03:15:46.212Z,12.70
2018-02-14T03:18:17.594Z,13.50
2018-02-14T03:20:48.682Z,13.80
2018-02-14T03:23:19.486Z,12.77
2018-02-14T03:25:52.642Z,17.05
2018-02-14T03:28:23.806Z,12.75
2018-02-14T03:30:55.930Z,11.18
2018-02-14T03:33:25.751Z,13.40
2018-02-14T03:35:55.358Z,13.23
2018-02-14T03:38:26.749Z,17.55
2018-02-14T03:40:57.774Z,14.43
2018-02-14T03:43:28.459Z,13.50
2018-02-14T03:46:05.271Z,13.30
2018-02-14T03:48:36.411Z,17.67
2018-02-14T03:51:08.871Z,16.17
2018-02-14T03:53:40.443Z,12.63
2018-02-14T03:56:10.958Z,12.07
2018-02-14T03:58:42.669Z,13.32
2018-02-14T04:01:13.480Z,13.25
2018-02-14T04:03:44.998Z,14.05
2018-02-14T04:06:14.019Z,14.30
2018-02-14T04:08:45.122Z,14.10
2018-02-14T04:11:16.578Z,14.82
2018-02-14T04:13:47.732Z,12.68
2018-02-14T04:16:18.846Z,11.05
2018-02-14T04:18:51.743Z,12.80
2018-02-14T04:21:23.870Z,13.65
2018-02-14T04:23:55.114Z,14.02
2018-02-14T04:26:27.876Z,13.32
2018-02-14T04:28:58.405Z,13.00
2018-02-14T04:31:29.182Z,18.23
2018-02-14T04:33:59.423Z,12.27
2018-02-14T04:36:30.584Z,11.55
2018-02-14T04:39:02.933Z,11.70
2018-02-14T04:41:33.625Z,14.02
2018-02-14T04:44:03.602Z,12.93
2018-02-14T04:46:36.814Z,15.98
2018-02-14T04:49:10.340Z,14.02
2018-02-14T04:51:41.941Z,11.80
2018-02-14T04:54:13.112Z,13.13
2018-02-14T04:56:46.923Z,17.83
2018-02-14T04:59:18.407Z,13.40
2018-02-14T05:01:50.218Z,13.50
2018-02-14T05:04:20.793Z,12.60
2018-02-14T05:06:50.475Z,15.88
2018-02-14T05:09:19.486Z,13.02
2018-02-14T05:11:48.882Z,12.60
2018-02-14T05:14:20.041Z,13.75
2018-02-14T05:16:51.258Z,13.07
2018-02-14T05:19:24.378Z,16.75
2018-02-14T05:21:56.817Z,14.15
2018-02-14T05:24:27.910Z,14.02
2018-02-14T05:27:00.142Z,13.90
2018-02-14T05:29:33.023Z,16.90
2018-02-14T05:32:03.596Z,17.30
2018-02-14T05:34:35.212Z,17.48
2018-02-14T05:37:06.920Z,15.70
2018-02-14T05:39:37.306Z,16.27
2018-02-14T05:42:06.722Z,22.35
2018-02-14T05:44:38.405Z,22.15
2018-02-14T05:47:10.018Z,18.70
2018-02-14T05:49:38.635Z,20.20
2018-02-14T05:52:09.748Z,19.37
2018-02-14T05:54:40.114Z,22.73
2018-02-14T05:57:10.972Z,19.65
2018-02-14T05:59:42.014Z,21.08
2018-02-14T06:02:12.689Z,22.10
2018-02-14T06:04:44.921Z,20.85
2018-02-14T06:07:17.043Z,19.17
2018-02-14T06:09:47.567Z,19.52
2018-02-14T06:12:19.977Z,19.83
2018-02-14T06:14:51.888Z,20.73
2018-02-14T06:17:22.350Z,25.08
2018-02-14T06:19:53.183Z,24.58
2018-02-14T06:22:24.628Z,25.00
2018-02-14T06:24:55.270Z,25.10
2018-02-14T06:27:28.451Z,21.87
2018-02-14T06:29:59.604Z,26.42
2018-02-14T06:32:31.257Z,23.15
2018-02-14T06:35:02.581Z,24.73
2018-02-14T06:37:33.119Z,28.33
2018-02-14T06:40:03.146Z,27.80
2018-02-14T06:42:33.719Z,26.27
2018-02-14T06:45:05.262Z,29.37
2018-02-14T06:47:37.736Z,24.40
2018-02-14T06:50:08.315Z,31.27
2018-02-14T06:52:39.815Z,30.30
2018-02-14T06:55:11.391Z,33.47
2018-02-14T06:57:42.632Z,35.03
2018-02-14T07:00:15.013Z,30.33
2018-02-14T07:02:46.567Z,26.75
2018-02-14T07:05:18.208Z,27.30
2018-02-14T07:07:46.936Z,30.08
2018-02-14T07:10:14.811Z,33.40
2018-02-14T07:12:42.743Z,37.88
2018-02-14T07:15:10.658Z,42.60
2018-02-14T07:17:38.548Z,36.63
2018-02-14T07:20:06.483Z,35.03
2018-02-14T07:22:34.362Z,34.20
2018-02-14T07:25:02.343Z,38.08
2018-02-14T07:27:30.322Z,39.03
2018-02-14T07:29:58.306Z,39.70
2018-02-14T07:32:26.964Z,36.75
2018-02-14T07:34:54.883Z,40.15
2018-02-14T07:37:22.748Z,33.15
2018-02-14T07:39:50.662Z,34.50
2018-02-14T07:42:18.527Z,35.88
2018-02-14T07:44:46.403Z,40.17
2018-02-14T07:47:14.356Z,39.78
2018-02-14T07:49:42.239Z,38.10
2018-02-14T07:52:10.138Z,40.30
2018-02-14T07:54:38.819Z,37.80
2018-02-14T07:57:07.486Z,32.25
2018-02-14T07:59:35.430Z,34.00
2018-02-14T08:02:03.396Z,36.67
2018-02-14T08:04:31.276Z,37.85
2018-02-14T08:06:59.150Z,37.08
2018-02-14T08:09:27.078Z,36.65
2018-02-14T08:11:54.985Z,34.28
2018-02-14T08:14:22.851Z,33.70
2018-02-14T08:16:50.811Z,38.90
2018-02-14T08:19:18.717Z,37.95
2018-02-14T08:21:46.609Z,34.35
2018-02-14T08:24:14.625Z,33.25
2018-02-14T08:26:42.882Z,35.03
2018-02-14T08:29:10.840Z,31.20
2018-02-14T08:31:39.107Z,31.77
2018-02-14T08:34:07.025Z,27.27
2018-02-14T08:36:35.693Z,52.40
2018-02-14T08:39:03.688Z,28.25
2018-02-14T08:41:32.376Z,32.63
2018-02-14T08:44:01.036Z,32.17
2018-02-14T08:46:28.983Z,34.60
2018-02-14T08:48:56.991Z,27.73
2018-02-14T08:51:25.720Z,35.55
2018-02-14T08:53:53.680Z,32.83
2018-02-14T08:56:21.646Z,31.77
2018-02-14T08:58:49.522Z,26.08
2018-02-14T09:01:19.668Z,29.00
2018-02-14T09:03:47.633Z,24.85
2018-02-14T09:06:15.513Z,32.10
2018-02-14T09:08:43.406Z,36.58
2018-02-14T09:11:12.063Z,32.72
2018-02-14T09:13:39.955Z,29.63
2018-02-14T09:16:08.655Z,28.67
2018-02-14T09:18:36.624Z,37.33
2018-02-14T09:21:04.641Z,34.38
2018-02-14T09:23:32.607Z,38.45
2018-02-14T09:26:00.585Z,49.30
2018-02-14T09:28:28.547Z,31.35
2018-02-14T09:30:56.515Z,37.35
2018-02-14T09:33:24.375Z,40.08
2018-02-14T09:35:52.501Z,41.67
2018-02-14T09:38:21.161Z,39.05
2018-02-14T09:40:49.123Z,42.55
2018-02-14T09:43:17.126Z,40.47
2018-02-14T09:45:45.103Z,48.85
2018-02-14T09:48:13.036Z,37.90
2018-02-14T09:50:40.902Z,35.50
2018-02-14T09:53:08.807Z,37.75
2018-02-14T09:55:36.794Z,36.15
2018-02-14T09:58:04.718Z,35.28
2018-02-14T10:00:33.390Z,39.50
2018-02-14T10:03:01.288Z,35.83
2018-02-14T10:05:29.156Z,39.30
2018-02-14T10:07:57.035Z,30.20
2018-02-14T10:10:24.922Z,40.30
2018-02-14T10:12:52.875Z,31.75
2018-02-14T10:15:20.786Z,31.77
2018-02-14T10:17:48.828Z,35.92
2018-02-14T10:20:16.820Z,35.08
2018-02-14T10:22:44.761Z,36.90
2018-02-14T10:25:12.749Z,32.13
2018-02-14T10:27:40.707Z,31.80
2018-02-14T10:30:09.362Z,33.38
2018-02-14T10:32:37.244Z,29.30
2018-02-14T10:35:05.175Z,34.47
2018-02-14T10:37:33.120Z,33.22
2018-02-14T10:40:01.055Z,33.10
2018-02-14T10:42:29.025Z,39.47
2018-02-14T10:44:56.944Z,32.90
2018-02-14T10:47:25.698Z,31.75
2018-02-14T10:49:53.706Z,31.37
2018-02-14T10:52:21.686Z,36.55
2018-02-14T10:54:49.647Z,28.83
2018-02-14T10:57:17.556Z,30.58
2018-02-14T10:59:45.536Z,33.20
2018-02-14T11:02:13.627Z,33.65
2018-02-14T11:04:47.167Z,33.22
2018-02-14T11:07:19.139Z,31.40
2018-02-14T11:09:47.127Z,31.02
2018-02-14T11:12:16.400Z,26.15
2018-02-14T11:14:44.370Z,27.48
2018-02-14T11:17:12.397Z,24.37
2018-02-14T11:19:40.377Z,21.52
2018-02-14T11:22:09.069Z,26.20
2018-02-14T11:24:37.838Z,23.33
2018-02-14T11:27:05.747Z,23.15
2018-02-14T11:29:33.666Z,20.52
2018-02-14T11:32:01.629Z,24.50
2018-02-14T11:34:29.563Z,18.40
2018-02-14T11:36:57.542Z,20.02
2018-02-14T11:39:25.548Z,19.48
2018-02-14T11:41:53.449Z,17.67
2018-02-14T11:44:21.328Z,18.17
2018-02-14T11:46:49.301Z,16.73
2018-02-14T11:49:17.275Z,17.53
2018-02-14T11:51:45.180Z,17.50
2018-02-14T11:54:13.158Z,16.93
2018-02-14T11:56:41.066Z,17.93
2018-02-14T11:59:08.955Z,14.80
2018-02-14T12:01:36.996Z,13.10
2018-02-14T12:04:04.884Z,14.97
2018-02-14T12:06:32.774Z,15.17
2018-02-14T12:09:00.755Z,14.43
2018-02-14T12:11:28.727Z,11.43
2018-02-14T12:13:56.686Z,14.50
2018-02-14T12:16:24.643Z,17.63
2018-02-14T12:18:55.383Z,14.50
2018-02-14T12:21:23.264Z,14.93
2018-02-14T12:23:51.140Z,12.27
2018-02-14T12:26:19.075Z,13.00
2018-02-14T12:28:46.982Z,16.00
2018-02-14T12:31:15.724Z,12.60
2018-02-14T12:33:43.595Z,12.27
2018-02-14T12:36:11.511Z,13.40
2018-02-14T12:38:40.278Z,12.20
2018-02-14T12:41:08.197Z,12.73
2018-02-14T12:43:36.067Z,11.40
2018-02-14T12:46:04.010Z,17.50
2018-02-14T12:48:32.670Z,12.17
2018-02-14T12:51:00.543Z,11.30
2018-02-14T12:53:29.171Z,16.67
2018-02-14T12:55:57.107Z,11.30
2018-02-14T12:58:25.819Z,10.30
2018-02-14T13:00:53.712Z,13.07
2018-02-14T13:03:21.659Z,12.20
2018-02-14T13:05:49.527Z,12.27
2018-02-14T13:08:17.475Z,11.87
2018-02-14T13:10:45.358Z,11.00
2018-02-14T13:13:13.262Z,13.20
2018-02-14T13:15:41.153Z,8.57
2018-02-14T13:18:09.867Z,9.20
2018-02-14T13:20:37.879Z,9.63
2018-02-14T13:23:05.820Z,8.93
2018-02-14T13:25:33.801Z,7.97
2018-02-14T13:28:01.684Z,10.13
2018-02-14T13:30:30.315Z,7.27
2018-02-14T13:32:58.263Z,9.03
2018-02-14T13:35:26.899Z,10.67
2018-02-14T13:37:54.834Z,9.87
2018-02-14T13:40:23.455Z,9.70
2018-02-14T13:42:51.357Z,9.60
2018-02-14T13:45:19.232Z,9.63
2018-02-14T13:47:47.956Z,13.03
2018-02-14T13:50:15.920Z,10.37
2018-02-14T13:52:43.871Z,11.53
2018-02-14T13:55:12.618Z,12.83
2018-02-14T13:57:40.529Z,10.40
2018-02-14T14:00:08.484Z,11.60
2018-02-14T14:02:37.258Z,9.67
2018-02-14T14:05:05.191Z,11.10
2018-02-14T14:07:33.130Z,9.63
2018-02-14T14:10:01.018Z,9.77
2018-02-14T14:12:28.902Z,8.93
2018-02-14T14:14:56.879Z,10.77
2018-02-14T14:17:24.790Z,11.37
2018-02-14T14:19:52.677Z,8.80
2018-02-14T14:22:20.653Z,11.03
2018-02-14T14:24:48.564Z,11.70
2018-02-14T14:27:16.527Z,10.17
2018-02-14T14:29:44.478Z,11.63
2018-02-14T14:32:12.408Z,11.47
2018-02-14T14:34:40.306Z,11.47
2018-02-14T14:37:08.220Z,10.30
2018-02-14T14:39:36.951Z,11.30
2018-02-14T14:42:04.934Z,10.20
2018-02-14T14:44:32.868Z,11.40
2018-02-14T14:47:00.781Z,10.47
2018-02-14T14:49:28.745Z,10.57
2018-02-14T14:51:56.645Z,10.27
2018-02-14T14:54:25.305Z,10.00
2018-02-14T14:56:53.175Z,8.10
2018-02-14T14:59:21.059Z,13.30
2018-02-14T15:01:49.729Z,11.40
2018-02-14T15:04:17.628Z,12.00
2018-02-14T15:06:45.561Z,10.10
2018-02-14T15:09:13.499Z,11.97
2018-02-14T15:11:41.476Z,11.00
2018-02-14T15:14:09.486Z,9.50
2018-02-14T15:16:38.407Z,8.70
2018-02-14T15:19:06.338Z,28.83
2018-02-14T15:21:35.056Z,8.77
2018-02-14T15:24:02.999Z,8.17
2018-02-14T15:26:31.658Z,7.50
2018-02-14T15:28:59.527Z,8.70
2018-02-14T15:31:27.451Z,9.30
2018-02-14T15:33:55.399Z,9.60
2018-02-14T15:36:24.157Z,8.33
2018-02-14T15:38:52.934Z,10.57
2018-02-14T15:41:20.827Z,8.87
2018-02-14T15:43:49.480Z,8.60
2018-02-14T15:46:17.492Z,10.10
2018-02-14T15:48:45.476Z,12.20
2018-02-14T15:51:13.443Z,10.60
2018-02-14T15:53:41.346Z,9.63
2018-02-14T15:56:09.291Z,10.90
2018-02-14T15:58:37.267Z,8.20
2018-02-14T16:01:05.205Z,14.73
2018-02-14T16:03:33.132Z,9.40
2018-02-14T16:06:01.069Z,10.23
2018-02-14T16:08:28.943Z,10.57
2018-02-14T16:10:56.861Z,11.73
2018-02-14T16:13:25.611Z,9.77
2018-02-14T16:15:53.511Z,9.47
2018-02-14T16:18:22.295Z,13.13
2018-02-14T16:20:51.006Z,17.90
2018-02-14T16:23:18.892Z,13.65
2018-02-14T16:25:46.758Z,17.48
2018-02-14T16:28:14.659Z,16.20
2018-02-14T16:30:42.682Z,12.68
2018-02-14T16:33:10.651Z,12.85
2018-02-14T16:35:38.626Z,12.23
2018-02-14T16:38:06.518Z,11.52
2018-02-14T16:40:34.492Z,14.70
2018-02-14T16:43:02.456Z,12.23
2018-02-14T16:45:30.453Z,14.87
2018-02-14T16:47:58.365Z,19.87
2018-02-14T16:50:26.347Z,15.93
2018-02-14T16:52:54.262Z,24.33
2018-02-14T16:55:22.220Z,20.33
2018-02-14T16:57:50.215Z,15.60
2018-02-14T17:00:18.980Z,21.02
2018-02-14T17:02:46.891Z,12.48
2018-02-14T17:05:14.823Z,11.98
2018-02-14T17:07:42.798Z,21.05
2018-02-14T17:10:10.692Z,12.30
2018-02-14T17:12:38.658Z,19.00
2018-02-14T17:15:06.539Z,13.23
2018-02-14T17:17:34.415Z,14.25
2018-02-14T17:20:02.300Z,14.57
2018-02-14T17:22:30.248Z,15.00
2018-02-14T17:24:58.195Z,17.87
2018-02-14T17:27:26.190Z,17.37
2018-02-14T17:29:54.124Z,14.15
2018-02-14T17:32:22.808Z,17.30
2018-02-14T17:34:51.470Z,15.30
2018-02-14T17:37:19.383Z,26.55
2018-02-14T17:39:47.393Z,16.05
2018-02-14T17:42:15.369Z,16.92
2018-02-14T17:44:43.266Z,20.92
2018-02-14T17:47:11.940Z,19.73
2018-02-14T17:49:40.635Z,17.83
2018-02-14T17:52:09.306Z,15.57
2018-02-14T17:54:38.994Z,21.25
2018-02-14T17:57:06.884Z,18.10
2018-02-14T17:59:35.619Z,22.37
2018-02-14T18:02:03.586Z,20.75
2018-02-14T18:04:31.486Z,17.67
2018-02-14T18:06:59.379Z,20.48
2018-02-14T18:09:28.108Z,23.35
2018-02-14T18:11:56.049Z,22.70
2018-02-14T18:14:24.023Z,23.12
2018-02-14T18:16:51.942Z,24.17
2018-02-14T18:19:19.871Z,27.08
2018-02-14T18:21:47.815Z,22.80
2018-02-14T18:24:16.465Z,23.17
2018-02-14T18:26:44.362Z,30.00
2018-02-14T18:29:13.071Z,23.35
2018-02-14T18:31:41.086Z,27.30
2018-02-14T18:34:09.319Z,30.77
2018-02-14T18:36:37.215Z,31.95
2018-02-14T18:39:05.271Z,25.12
2018-02-14T18:41:33.215Z,18.35
2018-02-14T18:44:01.241Z,17.65
2018-02-14T18:46:29.157Z,28.23
2018-02-14T18:48:57.026Z,24.60
2018-02-14T18:51:25.030Z,24.30
2018-02-14T18:53:52.983Z,18.87
2018-02-14T18:56:20.985Z,23.65
2018-02-14T18:58:48.886Z,23.42
2018-02-14T19:01:16.848Z,21.80
2018-02-14T19:03:45.587Z,19.08
2018-02-14T19:06:13.545Z,17.95
2018-02-14T19:08:41.456Z,22.75
2018-02-14T19:11:10.134Z,18.52
2018-02-14T19:13:38.119Z,16.48
2018-02-14T19:16:06.791Z,19.67
2018-02-14T19:18:34.751Z,25.15
2018-02-14T19:21:02.986Z,18.27
2018-02-14T19:23:31.145Z,19.58
2018-02-14T19:25:59.317Z,24.92
2018-02-14T19:28:27.330Z,21.55
2018-02-14T19:30:55.879Z,20.35
2018-02-14T19:33:23.927Z,21.60
2018-02-14T19:35:52.646Z,25.05
2018-02-14T19:38:20.594Z,23.10
2018-02-14T19:40:48.523Z,20.83
2018-02-14T19:43:16.448Z,19.70
2018-02-14T19:45:44.426Z,21.02
2018-02-14T19:48:12.352Z,21.83
2018-02-14T19:50:40.991Z,17.20
2018-02-14T19:53:08.955Z,18.73
2018-02-14T19:55:36.843Z,20.70
2018-02-14T19:58:04.747Z,21.65
2018-02-14T20:00:32.664Z,18.77
2018-02-14T20:03:00.654Z,20.35
2018-02-14T20:05:28.638Z,19.40
2018-02-14T20:08:00.711Z,21.45
2018-02-14T20:10:30.935Z,18.75
2018-02-14T20:13:04.853Z,22.50
2018-02-14T20:15:33.331Z,20.62
2018-02-14T20:18:01.207Z,25.35
2018-02-14T20:20:29.339Z,22.02
2018-02-14T20:22:57.315Z,18.08
2018-02-14T20:25:26.096Z,18.75
2018-02-14T20:27:54.768Z,20.95
2018-02-14T20:30:22.775Z,19.92
2018-02-14T20:32:51.020Z,23.80
2018-02-14T20:35:18.975Z,23.48
2018-02-14T20:37:47.102Z,22.02
2018-02-14T20:40:15.196Z,25.77
2018-02-14T20:42:43.369Z,20.52
2018-02-14T20:45:12.669Z,20.33
2018-02-14T20:47:40.623Z,19.62
2018-02-14T20:50:08.530Z,20.58
2018-02-14T20:52:36.461Z,19.25
2018-02-14T20:55:04.439Z,21.45
2018-02-14T20:57:32.403Z,20.88
2018-02-14T21:00:00.296Z,20.85
2018-02-14T21:02:28.646Z,21.67
2018-02-14T21:04:56.596Z,21.45
2018-02-14T21:07:24.526Z,26.25
2018-02-14T21:09:52.485Z,20.35
2018-02-14T21:12:20.463Z,22.17
2018-02-14T21:14:48.350Z,17.83
2018-02-14T21:17:17.114Z,23.98
2018-02-14T21:19:44.996Z,19.55
2018-02-14T21:22:13.648Z,24.55
2018-02-14T21:24:41.568Z,20.05
2018-02-14T21:27:09.458Z,21.45
2018-02-14T21:29:37.398Z,19.05
2018-02-14T21:32:05.338Z,20.92
2018-02-14T21:34:33.235Z,21.73
2018-02-14T21:37:01.250Z,22.17
2018-02-14T21:39:29.261Z,22.98
2018-02-14T21:41:57.928Z,23.08
2018-02-14T21:44:25.879Z,20.80
2018-02-14T21:46:53.754Z,19.23
2018-02-14T21:49:21.627Z,21.67
2018-02-14T21:51:49.602Z,23.67
2018-02-14T21:54:17.598Z,20.23
2018-02-14T21:56:45.481Z,20.70
2018-02-14T21:59:13.463Z,22.37
2018-02-14T22:01:41.373Z,20.92
2018-02-14T22:04:09.248Z,23.40
2018-02-14T22:06:37.884Z,25.00
2018-02-14T22:09:05.805Z,19.35
2018-02-14T22:11:34.455Z,21.17
2018-02-14T22:14:02.442Z,22.08
2018-02-14T22:16:30.368Z,20.40
2018-02-14T22:18:58.330Z,22.50
2018-02-14T22:21:26.295Z,21.70
2018-02-14T22:23:54.173Z,19.08
2018-02-14T22:26:22.036Z,23.65
2018-02-14T22:28:49.941Z,22.10
2018-02-14T22:31:17.815Z,26.87
2018-02-14T22:33:45.760Z,25.45
2018-02-14T22:36:13.659Z,23.00
2018-02-14T22:38:42.379Z,22.87
2018-02-14T22:41:10.235Z,25.75
2018-02-14T22:43:38.111Z,23.52
2018-02-14T22:46:05.998Z,22.25
2018-02-14T22:48:33.883Z,21.90
2018-02-14T22:51:01.855Z,20.67
2018-02-14T22:53:29.753Z,24.40
2018-02-14T22:55:58.483Z,34.97
2018-02-14T22:58:26.476Z,21.52
2018-02-14T23:00:54.375Z,31.60
2018-02-14T23:03:23.131Z,24.67
2018-02-14T23:05:51.106Z,21.40
2018-02-14T23:08:18.994Z,25.42
2018-02-14T23:10:47.655Z,21.30
2018-02-14T23:13:15.610Z,23.12
2018-02-14T23:15:43.574Z,22.37
2018-02-14T23:18:11.914Z,30.33
2018-02-14T23:20:39.800Z,26.52
2018-02-14T23:23:07.766Z,24.83
2018-02-14T23:25:35.734Z,22.40
2018-02-14T23:28:03.788Z,24.52
2018-02-14T23:30:31.674Z,23.15
2018-02-14T23:32:59.554Z,23.92
2018-02-14T23:35:27.439Z,27.13
2018-02-14T23:37:55.330Z,23.70
2018-02-14T23:40:24.071Z,23.60
2018-02-14T23:42:51.954Z,22.92
2018-02-14T23:45:19.932Z,22.65
2018-02-14T23:47:47.822Z,27.40
2018-02-14T23:50:16.554Z,22.77
2018-02-14T23:52:44.515Z,23.95
2018-02-14T23:55:12.433Z,22.10
2018-02-14T23:57:40.352Z,22.58
